Time;durP1;ratioP1;P1;durP2;ratioP2;P2;SDS_P1;SDS_P2;PMS_P1;PMS_P2;Temp;Humidity;BMP_temperature;BMP_pressure;BME280_temperature;BME280_humidity;BME280_pressure;Samples;Min_cycle;Max_cycle;Signal;HPM_P1;HPM_P2
2021/12/05 00:20:51;;;;;;;3.50;2.60;;;;;;;7.22;100.00;-24018.63;5033330;28;20650;-66
2021/12/05 00:23:21;;;;;;;4.00;2.70;;;;;;;7.04;100.00;-24013.66;5032867;28;20235;-65
2021/12/05 00:25:51;;;;;;;5.37;3.47;;;;;;;6.99;100.00;-24012.09;5033728;28;20179;-64
2021/12/05 00:31:16;;;;;;;4.87;3.43;;;;;;;7.18;100.00;-24017.47;5033131;28;20258;-67
2021/12/05 01:11:46;;;;;;;3.17;2.57;;;;;;;7.21;100.00;-24018.19;5012724;28;20760;-64
2021/12/05 01:16:47;;;;;;;3.00;2.47;;;;;;;6.93;100.00;-24010.53;5012493;28;20616;-66
2021/12/05 01:19:15;;;;;;;4.07;2.67;;;;;;;6.90;100.00;-24009.53;5012510;28;20172;-64
2021/12/05 01:21:43;;;;;;;4.63;3.27;;;;;;;6.74;100.00;-24005.00;5012773;28;20160;-64
2021/12/05 01:24:26;;;;;;;2.97;2.50;;;;;;;6.88;100.00;-24009.13;5012736;28;20247;-65
2021/12/05 01:31:58;;;;;;;3.63;2.90;;;;;;;6.60;100.00;-24001.19;5012960;28;20271;-65
2021/12/05 01:37:14;;;;;;;3.17;2.53;;;;;;;6.79;100.00;-24006.44;5012535;28;20337;-64
2021/12/05 01:45:40;;;;;;;2.43;2.23;;;;;;;6.61;100.00;-24001.47;5015421;28;20178;-64
2021/12/05 01:59:20;;;;;;;2.43;2.00;;;;;;;6.95;100.00;-24010.97;5031412;28;20167;-65
2021/12/05 02:02:31;;;;;;;6.37;2.60;;;;;;;6.72;100.00;-24004.56;5030369;28;20568;-65
2021/12/05 02:40:18;;;;;;;4.20;3.37;;;;;;;6.74;100.00;-24005.00;5033457;28;20768;-63
2021/12/05 02:45:38;;;;;;;4.47;2.67;;;;;;;6.79;100.00;-24006.56;5029756;28;20195;-64
2021/12/05 02:48:04;;;;;;;5.50;3.37;;;;;;;6.86;100.00;-24008.41;5035258;28;20606;-65
2021/12/05 02:50:32;;;;;;;10.27;4.60;;;;;;;6.67;100.00;-24003.16;5034871;28;20588;-64
2021/12/05 02:53:07;;;;;;;4.00;3.03;;;;;;;6.63;100.00;-24002.16;5035293;28;20178;-62
2021/12/05 02:55:42;;;;;;;5.00;3.40;;;;;;;6.99;100.00;-24012.09;5034909;28;20199;-63
2021/12/05 02:58:48;;;;;;;3.80;2.83;;;;;;;6.96;100.00;-24011.38;5035325;28;20182;-64
2021/12/05 03:01:16;;;;;;;6.70;3.17;;;;;;;6.61;100.00;-24001.59;5033623;28;20187;-64
2021/12/05 03:03:42;;;;;;;4.90;3.60;;;;;;;6.80;100.00;-24006.72;5035024;28;20168;-64
2021/12/05 03:06:19;;;;;;;3.90;2.70;;;;;;;6.66;100.00;-24002.88;5034698;28;20203;-66
2021/12/05 03:08:47;;;;;;;7.13;3.13;;;;;;;6.82;100.00;-24007.28;5035044;28;20194;-64
2021/12/05 03:11:14;;;;;;;3.60;3.03;;;;;;;6.83;100.00;-24007.56;5034503;28;20563;-66
2021/12/05 03:13:40;;;;;;;5.13;3.07;;;;;;;6.83;100.00;-24007.69;5033850;28;20266;-65
2021/12/05 03:16:09;;;;;;;4.63;3.07;;;;;;;6.59;100.00;-24000.88;5034549;28;20195;-65
2021/12/05 03:18:35;;;;;;;6.97;3.60;;;;;;;6.59;100.00;-24000.88;5034559;28;20179;-63
2021/12/05 03:21:03;;;;;;;6.63;3.73;;;;;;;6.79;100.00;-24006.44;5034414;28;20560;-65
2021/12/05 03:23:29;;;;;;;4.77;3.00;;;;;;;6.89;100.00;-24009.25;5034283;28;20700;-64
2021/12/05 03:25:55;;;;;;;7.60;3.30;;;;;;;6.80;100.00;-24006.72;5034111;28;20168;-66
2021/12/05 03:28:20;;;;;;;5.03;3.10;;;;;;;6.65;100.00;-24002.72;5034705;28;20171;-65
2021/12/05 03:30:46;;;;;;;5.13;3.20;;;;;;;6.96;100.00;-24011.25;5034304;28;20773;-65
2021/12/05 03:33:11;;;;;;;3.57;2.83;;;;;;;6.96;100.00;-24011.38;5034479;28;20175;-66
2021/12/05 03:35:37;;;;;;;4.87;3.57;;;;;;;6.86;100.00;-24008.56;5033469;28;20313;-65
2021/12/05 03:38:03;;;;;;;3.43;2.83;;;;;;;6.96;100.00;-24011.25;5034161;28;20180;-66
2021/12/05 03:40:31;;;;;;;3.60;3.30;;;;;;;6.33;100.00;-23993.50;5033001;28;20214;-66
2021/12/05 03:42:58;;;;;;;8.43;4.07;;;;;;;6.61;100.00;-24001.47;5033443;28;20183;-66
2021/12/05 03:45:30;;;;;;;4.37;3.43;;;;;;;7.09;100.00;-24014.94;5028433;28;20187;-64
2021/12/05 03:47:59;;;;;;;6.13;3.07;;;;;;;7.14;100.00;-24016.34;5031947;28;20279;-65
2021/12/05 03:50:25;;;;;;;5.80;2.83;;;;;;;7.20;100.00;-24017.91;5034144;28;20183;-64
2021/12/05 03:52:51;;;;;;;3.63;2.97;;;;;;;7.22;100.00;-24018.63;5033385;28;20186;-62
2021/12/05 03:55:17;;;;;;;3.77;2.90;;;;;;;6.99;100.00;-24012.09;5034076;28;20260;-66
2021/12/05 03:57:42;;;;;;;5.37;2.37;;;;;;;7.02;100.00;-24012.94;5033988;28;20183;-66
2021/12/05 04:00:13;;;;;;;4.37;2.73;;;;;;;7.06;100.00;-24014.22;5031491;28;20183;-66
2021/12/05 04:02:39;;;;;;;4.53;3.43;;;;;;;6.29;100.00;-23992.50;5029306;28;20202;-64
2021/12/05 04:05:04;;;;;;;4.17;3.07;;;;;;;6.97;100.00;-24011.66;5032105;28;20183;-64
2021/12/05 04:07:30;;;;;;;3.80;2.60;;;;;;;7.27;100.00;-24020.03;5033284;28;20191;-65
2021/12/05 04:09:56;;;;;;;6.80;3.60;;;;;;;7.04;100.00;-24013.66;5032835;28;20179;-64
2021/12/05 04:12:22;;;;;;;4.47;2.67;;;;;;;7.14;100.00;-24016.22;5032281;28;20211;-64
2021/12/05 04:14:54;;;;;;;4.37;2.80;;;;;;;6.91;100.00;-24009.97;5030091;28;20203;-66
2021/12/05 04:17:20;;;;;;;6.43;3.10;;;;;;;6.98;100.00;-24011.81;5033582;28;20253;-65
2021/12/05 04:19:46;;;;;;;4.30;2.93;;;;;;;7.05;100.00;-24013.94;5033291;28;20222;-64
2021/12/05 04:22:12;;;;;;;4.60;3.17;;;;;;;6.78;100.00;-24006.13;5031682;28;20220;-64
2021/12/05 04:24:38;;;;;;;3.47;2.50;;;;;;;6.90;100.00;-24009.53;5031823;28;20607;-65
2021/12/05 04:27:04;;;;;;;4.90;3.00;;;;;;;6.89;100.00;-24009.41;5031106;28;20639;-64
2021/12/05 04:29:32;;;;;;;5.33;3.77;;;;;;;7.25;100.00;-24019.34;5032750;28;20661;-63
2021/12/05 04:31:57;;;;;;;5.53;3.50;;;;;;;7.01;100.00;-24012.66;5033289;28;20179;-64
2021/12/05 04:34:23;;;;;;;5.87;3.30;;;;;;;7.10;100.00;-24015.34;5033023;28;20294;-64
2021/12/05 04:36:48;;;;;;;6.73;4.13;;;;;;;7.09;100.00;-24015.06;5032848;28;20241;-65
2021/12/05 04:39:14;;;;;;;8.67;3.73;;;;;;;6.80;100.00;-24006.84;5032931;28;20627;-64
2021/12/05 04:41:42;;;;;;;4.50;3.50;;;;;;;7.09;100.00;-24015.06;5033152;28;20608;-64
2021/12/05 04:44:08;;;;;;;3.83;3.33;;;;;;;7.04;100.00;-24013.66;5032767;28;20183;-66
2021/12/05 04:46:35;;;;;;;8.17;3.43;;;;;;;7.02;100.00;-24013.09;5032581;28;20245;-63
2021/12/05 04:49:00;;;;;;;6.67;4.07;;;;;;;6.99;100.00;-24012.25;5033587;28;20255;-66
2021/12/05 04:51:35;;;;;;;4.77;2.67;;;;;;;6.83;100.00;-24007.56;5032844;28;20221;-65
2021/12/05 04:54:02;;;;;;;5.70;3.47;;;;;;;7.02;100.00;-24013.09;5032665;28;20194;-64
2021/12/05 04:56:28;;;;;;;10.77;4.40;;;;;;;6.96;100.00;-24011.25;5032918;28;20669;-64
2021/12/05 04:58:55;;;;;;;6.13;3.30;;;;;;;6.50;100.00;-23998.47;5031656;28;20318;-64
2021/12/05 05:01:23;;;;;;;8.33;3.93;;;;;;;6.78;100.00;-24006.28;5031808;28;20187;-65
2021/12/05 05:03:50;;;;;;;7.30;4.07;;;;;;;6.41;100.00;-23995.78;5032163;28;20579;-66
2021/12/05 05:06:23;;;;;;;8.67;3.93;;;;;;;6.31;100.00;-23993.09;5032669;28;20664;-65
2021/12/05 05:08:52;;;;;;;7.07;4.27;;;;;;;6.31;100.00;-23992.94;5033109;28;20175;-66
2021/12/05 05:11:20;;;;;;;4.97;3.43;;;;;;;6.58;100.00;-24000.75;5032617;28;20654;-65
2021/12/05 05:13:46;;;;;;;8.30;4.83;;;;;;;6.25;100.00;-23991.22;5032092;28;20534;-66
2021/12/05 05:16:14;;;;;;;7.60;3.90;;;;;;;6.41;100.00;-23995.78;5032290;28;20187;-65
2021/12/05 05:18:50;;;;;;;5.83;4.43;;;;;;;6.66;100.00;-24003.00;5046317;28;20187;-65
2021/12/05 05:29:35;;;;;;;5.20;2.57;;;;;;;6.68;100.00;-24003.31;5031734;28;20195;-66
2021/12/05 05:40:51;;;;;;;5.87;3.20;;;;;;;6.50;100.00;-23998.34;5031482;28;20170;-63
2021/12/05 05:46:00;;;;;;;4.83;3.00;;;;;;;6.84;100.00;-24007.84;5031393;28;20254;-63
2021/12/05 05:50:51;;;;;;;5.47;3.13;;;;;;;6.81;100.00;-24007.00;5031677;28;20178;-63
2021/12/05 05:53:17;;;;;;;6.50;4.30;;;;;;;6.53;100.00;-23999.19;5045701;28;20186;-65
2021/12/05 05:55:43;;;;;;;6.20;2.53;;;;;;;6.94;100.00;-24010.81;5047733;28;20199;-64
2021/12/05 05:58:15;;;;;;;5.93;2.90;;;;;;;6.75;100.00;-24005.44;5032696;28;20175;-63
2021/12/05 06:01:02;;;;;;;6.37;3.67;;;;;;;6.80;100.00;-24006.84;5035989;28;20159;-65
2021/12/05 06:03:29;;;;;;;7.07;3.53;;;;;;;6.91;100.00;-24009.81;5051522;28;20270;-64
2021/12/05 06:05:58;;;;;;;5.23;2.87;;;;;;;6.84;100.00;-24008.00;5035981;28;20543;-64
2021/12/05 06:08:26;;;;;;;4.90;2.73;;;;;;;6.93;100.00;-24010.53;5035512;28;20209;-66
2021/12/05 06:10:54;;;;;;;4.40;3.23;;;;;;;6.86;100.00;-24008.56;5035646;28;20171;-68
2021/12/05 06:13:20;;;;;;;3.63;2.80;;;;;;;6.81;100.00;-24007.00;5033992;28;20179;-67
2021/12/05 06:15:50;;;;;;;6.97;3.17;;;;;;;6.85;100.00;-24008.25;5035507;28;20199;-69
2021/12/05 06:18:16;;;;;;;6.07;3.10;;;;;;;7.28;100.00;-24020.31;5036004;28;20245;-68
2021/12/05 06:20:42;;;;;;;8.13;3.87;;;;;;;7.31;100.00;-24021.03;5035932;28;20175;-66
2021/12/05 06:23:10;;;;;;;11.73;4.20;;;;;;;7.08;100.00;-24014.78;5034982;28;20742;-67
2021/12/05 06:25:39;;;;;;;5.20;3.13;;;;;;;7.14;100.00;-24016.34;5035983;28;20189;-69
2021/12/05 06:28:11;;;;;;;4.73;3.43;;;;;;;7.19;100.00;-24017.63;5035386;28;20250;-67
2021/12/05 06:30:47;;;;;;;6.93;3.40;;;;;;;7.53;100.00;-24027.41;5034072;28;20738;-66
2021/12/05 06:46:39;;;;;;;3.53;2.73;;;;;;;7.53;100.00;-24027.28;5034863;28;20346;-66
2021/12/05 06:49:05;;;;;;;5.40;3.00;;;;;;;7.55;100.00;-24027.84;5033380;28;20270;-66
2021/12/05 06:51:31;;;;;;;4.43;3.30;;;;;;;7.60;100.00;-24029.09;5034893;28;20183;-65
2021/12/05 06:53:57;;;;;;;4.80;3.27;;;;;;;7.67;100.00;-24031.09;5034385;28;20175;-65
2021/12/05 06:56:23;;;;;;;4.37;3.00;;;;;;;7.42;100.00;-24024.28;5034747;28;20175;-67
2021/12/05 06:58:50;;;;;;;5.57;3.17;;;;;;;7.57;100.00;-24028.41;5034277;28;20214;-65
2021/12/05 07:01:15;;;;;;;4.47;3.60;;;;;;;7.76;100.00;-24033.66;5033956;28;20558;-65
2021/12/05 07:03:45;;;;;;;4.17;3.00;;;;;;;7.69;100.00;-24031.81;5033105;28;20191;-65
2021/12/05 07:06:19;;;;;;;8.47;4.20;;;;;;;7.73;100.00;-24032.94;5034242;28;20175;-66
2021/12/05 07:08:45;;;;;;;5.70;3.50;;;;;;;7.81;100.00;-24035.06;5034424;28;20175;-63
2021/12/05 07:24:14;;;;;;;6.50;4.13;;;;;;;7.85;100.00;-24036.19;5038553;28;20231;-65
2021/12/05 07:40:28;;;;;;;8.70;4.47;;;;;;;8.58;100.00;-24056.72;5027332;28;20242;-63
2021/12/05 07:43:08;;;;;;;8.67;4.50;;;;;;;8.71;100.00;-24060.41;5033795;28;20259;-65
2021/12/05 07:45:44;;;;;;;6.93;4.03;;;;;;;8.13;100.00;-24044.00;5034014;28;20217;-64
2021/12/05 07:48:17;;;;;;;6.27;4.23;;;;;;;8.21;100.00;-24046.25;5033713;28;20239;-64
2021/12/05 07:51:04;;;;;;;15.70;5.23;;;;;;;8.18;100.00;-24045.41;5032725;28;20271;-64
2021/12/05 07:56:58;;;;;;;9.20;4.77;;;;;;;8.03;100.00;-24041.16;5012184;28;20191;-64
2021/12/05 07:59:22;;;;;;;12.57;4.47;;;;;;;7.88;100.00;-24037.03;5031175;28;20195;-64
2021/12/05 08:15:32;;;;;;;12.80;5.17;;;;;;;8.19;100.00;-24045.81;5030658;28;20226;-67
2021/12/05 08:17:58;;;;;;;10.57;5.40;;;;;;;8.60;100.00;-24057.28;5031564;28;20277;-64
2021/12/05 08:20:29;;;;;;;8.33;4.33;;;;;;;8.71;100.00;-24060.41;5032885;28;20290;-63
2021/12/05 08:22:55;;;;;;;12.03;5.23;;;;;;;8.74;100.00;-24061.25;5032611;28;20219;-65
2021/12/05 08:25:24;;;;;;;9.17;4.77;;;;;;;8.80;100.00;-24062.81;5032739;28;20171;-67
2021/12/05 08:27:54;;;;;;;11.93;5.80;;;;;;;8.64;100.00;-24058.28;5032976;28;20273;-67
2021/12/05 08:30:33;;;;;;;6.97;4.03;;;;;;;8.24;100.00;-24047.09;5032244;28;20168;-66
2021/12/05 08:33:31;;;;;;;13.03;5.10;;;;;;;8.20;100.00;-24045.97;5032580;28;20189;-64
2021/12/05 08:44:15;;;;;;;12.40;6.07;;;;;;;8.16;100.00;-24044.84;5032424;28;20240;-63
2021/12/05 09:51:01;;;;;;;13.85;6.20;;;;;;;10.76;100.00;-24117.47;5011809;28;20246;-64
2021/12/05 09:52:11;;;;;;;16.80;6.32;;;;;;;10.83;100.00;-24119.59;5012192;28;20187;-67
2021/12/05 10:13:18;;;;;;;20.05;6.47;;;;;;;10.80;100.00;-24118.63;5008171;28;20612;-60
2021/12/05 10:16:09;;;;;;;15.35;5.47;;;;;;;10.72;100.00;-24116.50;5029680;28;20742;-62
2021/12/05 10:38:19;;;;;;;12.75;5.32;;;;;;;10.93;100.00;-24122.28;5031485;28;20242;-62
2021/12/05 10:41:02;;;;;;;11.85;5.05;;;;;;;10.68;100.00;-24115.38;5031167;28;20526;-66
2021/12/05 10:43:30;;;;;;;11.52;5.40;;;;;;;10.35;100.00;-24106.19;5029567;28;20179;-62
2021/12/05 10:46:04;;;;;;;12.00;4.72;;;;;;;10.28;100.00;-24104.06;5034235;28;20638;-64
2021/12/05 10:48:41;;;;;;;10.90;5.43;;;;;;;10.31;100.00;-24105.06;5035934;28;20167;-67
2021/12/05 10:51:13;;;;;;;8.23;4.72;;;;;;;10.23;100.00;-24102.66;5035492;28;20175;-61
2021/12/05 11:22:56;;;;;;;36.05;19.20;;;;;;;18.16;100.00;-24322.66;5049106;28;20931;-46
2021/12/05 11:25:28;;;;;;;29.27;18.67;;;;;;;18.03;100.00;-24319.31;5049055;28;20753;-57
2021/12/05 11:41:15;;;;;;;73.57;28.75;;;;;;;16.90;96.96;-24288.06;5087829;28;20570;-64
2021/12/05 11:43:45;;;;;;;47.30;26.60;;;;;;;15.28;100.00;-24243.16;5071279;28;20201;-76
2021/12/05 11:46:15;;;;;;;47.63;27.17;;;;;;;14.17;100.00;-24212.44;5068896;28;20166;-74
2021/12/05 11:48:42;;;;;;;45.28;26.90;;;;;;;13.21;100.00;-24185.78;5069336;28;20171;-76
2021/12/05 11:51:30;;;;;;;45.80;26.10;;;;;;;13.22;100.00;-24186.19;5067930;28;20528;-74
2021/12/05 11:54:00;;;;;;;47.92;26.73;;;;;;;12.93;100.00;-24178.03;5068749;28;20174;-72
2021/12/05 11:56:32;;;;;;;44.20;24.75;;;;;;;12.78;100.00;-24173.81;5068609;28;20589;-75
2021/12/05 11:59:06;;;;;;;46.13;25.67;;;;;;;12.43;100.00;-24163.97;5068845;28;20177;-73
2021/12/05 12:02:22;;;;;;;46.83;24.70;;;;;;;12.50;100.00;-24165.94;5067046;28;20178;-73
2021/12/05 12:04:49;;;;;;;38.95;23.38;;;;;;;12.03;100.00;-24152.84;5052991;28;20696;-72
2021/12/05 12:07:23;;;;;;;45.83;23.27;;;;;;;12.21;100.00;-24157.91;5050709;28;20407;-73
2021/12/05 12:09:53;;;;;;;43.90;22.77;;;;;;;12.05;100.00;-24153.56;5060854;28;20193;-73
2021/12/05 12:12:19;;;;;;;47.08;23.23;;;;;;;11.95;100.00;-24150.75;5063338;28;20174;-75
2021/12/05 12:14:46;;;;;;;42.38;21.60;;;;;;;11.42;100.00;-24136.09;5065313;28;20240;-74
2021/12/05 12:17:16;;;;;;;38.85;21.83;;;;;;;11.17;100.00;-24129.03;5067674;28;20653;-75
2021/12/05 12:19:48;;;;;;;35.78;20.52;;;;;;;11.39;100.00;-24135.25;5067737;28;20742;-73
2021/12/05 12:22:19;;;;;;;39.63;21.23;;;;;;;10.96;100.00;-24123.13;5066651;28;20194;-74
2021/12/05 12:24:49;;;;;;;38.63;21.92;;;;;;;10.68;100.00;-24115.22;5064538;28;20186;-75
2021/12/05 12:27:14;;;;;;;41.90;22.20;;;;;;;11.07;100.00;-24126.38;5066896;28;20174;-75
2021/12/05 12:29:40;;;;;;;39.75;22.10;;;;;;;10.68;100.00;-24115.22;5066429;28;20185;-75
2021/12/05 12:32:12;;;;;;;35.83;21.45;;;;;;;10.97;100.00;-24123.41;5067279;28;20190;-75
2021/12/05 12:34:40;;;;;;;36.90;21.42;;;;;;;10.76;100.00;-24117.63;5068500;28;20174;-75
2021/12/05 12:37:08;;;;;;;38.38;21.83;;;;;;;11.15;100.00;-24128.34;5070446;28;20262;-74
2021/12/05 12:39:44;;;;;;;38.97;23.08;;;;;;;10.50;100.00;-24110.44;5068432;28;20234;-73
2021/12/05 12:42:23;;;;;;;43.83;22.40;;;;;;;10.90;100.00;-24121.56;5070637;28;20185;-74
2021/12/05 12:45:04;;;;;;;39.45;22.83;;;;;;;10.94;100.00;-24122.69;5098985;28;20602;-72
2021/12/05 12:47:40;;;;;;;45.30;23.73;;;;;;;10.84;100.00;-24119.75;5066981;28;20190;-72
2021/12/05 12:50:19;;;;;;;44.17;21.40;;;;;;;10.71;100.00;-24116.06;5064025;28;20184;-74
2021/12/05 12:52:58;;;;;;;41.33;22.10;;;;;;;10.81;100.00;-24118.91;5052467;28;20200;-74
2021/12/05 12:55:31;;;;;;;39.70;23.30;;;;;;;10.57;100.00;-24112.41;5052331;28;20186;-74
2021/12/05 12:57:57;;;;;;;37.90;21.33;;;;;;;10.20;100.00;-24101.97;5052966;28;20549;-75
2021/12/05 13:00:26;;;;;;;42.20;23.35;;;;;;;10.25;100.00;-24103.38;5052610;28;20293;-73
2021/12/05 13:02:59;;;;;;;39.90;22.55;;;;;;;10.37;100.00;-24106.63;5052050;28;20688;-74
2021/12/05 13:11:19;;;;;;;38.40;21.42;;;;;;;10.70;100.00;-24115.78;5052557;28;20266;-74
2021/12/05 13:13:57;;;;;;;37.65;21.90;;;;;;;10.50;100.00;-24110.44;5049110;28;20171;-74
2021/12/05 13:16:28;;;;;;;37.95;20.63;;;;;;;10.51;100.00;-24110.72;5052523;28;20190;-73
2021/12/05 13:19:05;;;;;;;38.20;20.90;;;;;;;10.06;100.00;-24098.16;5053738;28;20191;-74
2021/12/05 13:21:39;;;;;;;43.80;21.85;;;;;;;10.36;100.00;-24106.47;5053377;28;20189;-74
2021/12/05 13:24:25;;;;;;;40.08;22.33;;;;;;;10.46;100.00;-24109.31;5053666;28;20178;-74
2021/12/05 13:26:53;;;;;;;41.53;21.58;;;;;;;10.51;100.00;-24110.72;5052332;28;20175;-74
2021/12/05 13:29:25;;;;;;;35.15;20.08;;;;;;;10.33;100.00;-24105.63;5053029;28;20273;-72
2021/12/05 13:32:25;;;;;;;42.53;20.08;;;;;;;10.42;100.00;-24108.16;5053692;28;20187;-72
2021/12/05 13:35:02;;;;;;;41.90;21.20;;;;;;;10.35;100.00;-24106.19;5054162;28;20265;-73
2021/12/05 13:37:42;;;;;;;37.90;20.80;;;;;;;10.18;100.00;-24101.41;5039881;28;20174;-74
2021/12/05 13:40:26;;;;;;;38.45;20.15;;;;;;;9.96;100.00;-24095.19;5050337;28;20238;-74
2021/12/05 13:43:06;;;;;;;34.38;19.30;;;;;;;10.01;100.00;-24096.59;5085484;28;20217;-76
2021/12/05 13:45:42;;;;;;;35.50;20.75;;;;;;;9.90;100.00;-24093.47;5051552;28;20190;-72
2021/12/05 13:48:33;;;;;;;43.17;21.90;;;;;;;9.93;100.00;-24094.47;5051341;28;20167;-73
2021/12/05 13:51:02;;;;;;;36.60;21.60;;;;;;;9.98;100.00;-24095.75;5051274;28;20198;-74
2021/12/05 13:53:34;;;;;;;41.22;22.88;;;;;;;10.00;100.00;-24096.44;5051620;28;20701;-75
2021/12/05 13:56:13;;;;;;;37.20;20.80;;;;;;;9.88;100.00;-24093.06;5050529;28;20255;-74
2021/12/05 13:58:47;;;;;;;38.30;21.38;;;;;;;9.86;100.00;-24092.34;5047792;28;20186;-74
2021/12/05 14:01:25;;;;;;;36.83;20.57;;;;;;;9.57;100.00;-24084.31;5052504;28;20193;-75
2021/12/05 14:03:58;;;;;;;35.30;20.27;;;;;;;9.48;100.00;-24081.75;5050471;28;20175;-74
2021/12/05 14:06:29;;;;;;;34.85;21.10;;;;;;;9.44;100.00;-24080.63;5049516;28;20202;-73
2021/12/05 14:09:01;;;;;;;36.90;20.33;;;;;;;9.34;100.00;-24077.94;5049724;28;20269;-71
2021/12/05 14:11:28;;;;;;;37.43;21.50;;;;;;;8.79;100.00;-24062.66;5050747;28;20266;-72
2021/12/05 14:13:53;;;;;;;37.13;19.83;;;;;;;9.12;100.00;-24071.72;5049826;28;20186;-74
2021/12/05 14:16:20;;;;;;;40.20;21.57;;;;;;;8.95;100.00;-24066.91;5051161;28;20660;-72
2021/12/05 14:18:46;;;;;;;39.57;21.53;;;;;;;9.14;100.00;-24072.28;5050942;28;20173;-74
2021/12/05 14:21:18;;;;;;;46.73;26.30;;;;;;;9.20;100.00;-24074.13;5049695;28;20217;-73
2021/12/05 14:23:53;;;;;;;54.97;26.30;;;;;;;8.68;100.00;-24059.41;5048243;28;20206;-74
2021/12/05 14:26:22;;;;;;;46.47;25.53;;;;;;;8.94;100.00;-24066.63;5050946;28;20293;-73
2021/12/05 14:29:05;;;;;;;50.93;28.53;;;;;;;8.32;100.00;-24049.38;5049157;28;21009;-73
2021/12/05 14:31:35;;;;;;;57.17;29.27;;;;;;;8.57;100.00;-24056.44;5051062;28;20249;-73
2021/12/05 14:34:02;;;;;;;47.07;27.13;;;;;;;8.75;100.00;-24061.41;5050772;28;20186;-73
2021/12/05 14:36:38;;;;;;;50.63;26.90;;;;;;;8.13;100.00;-24044.00;5051234;28;20198;-73
2021/12/05 14:39:09;;;;;;;50.43;26.17;;;;;;;8.40;100.00;-24051.78;5050003;28;20166;-73
2021/12/05 14:41:35;;;;;;;66.40;27.50;;;;;;;8.47;100.00;-24053.63;5050789;28;20183;-74
2021/12/05 14:44:02;;;;;;;61.33;27.93;;;;;;;8.50;100.00;-24054.47;5050834;28;20183;-73
2021/12/05 14:46:31;;;;;;;48.67;27.90;;;;;;;8.40;100.00;-24051.63;5051027;28;20202;-72
2021/12/05 14:49:02;;;;;;;63.97;28.83;;;;;;;8.12;100.00;-24043.69;5050693;28;20197;-72
2021/12/05 14:51:37;;;;;;;55.37;28.23;;;;;;;8.34;100.00;-24049.94;5048321;28;20197;-72
2021/12/05 14:54:04;;;;;;;61.13;27.83;;;;;;;8.40;100.00;-24051.63;5051551;28;20231;-73
2021/12/05 14:56:33;;;;;;;58.00;27.87;;;;;;;8.38;100.00;-24051.22;5052250;28;20182;-72
2021/12/05 14:59:03;;;;;;;50.63;28.73;;;;;;;8.36;100.00;-24050.66;5050809;28;20217;-74
2021/12/05 15:01:30;;;;;;;55.93;28.57;;;;;;;7.81;100.00;-24035.22;5051033;28;20179;-74
2021/12/05 15:03:56;;;;;;;55.77;28.87;;;;;;;7.85;100.00;-24036.34;5050390;28;20178;-72
2021/12/05 15:06:30;;;;;;;56.07;30.57;;;;;;;7.83;100.00;-24035.63;5048136;28;20178;-75
2021/12/05 15:08:55;;;;;;;57.83;31.07;;;;;;;7.92;100.00;-24038.31;5051278;28;20268;-78
2021/12/05 15:11:21;;;;;;;61.33;31.83;;;;;;;8.25;100.00;-24047.38;5050955;28;20710;-55
2021/12/05 15:13:46;;;;;;;56.77;30.00;;;;;;;8.27;100.00;-24047.94;5050589;28;20240;-52
2021/12/05 15:16:12;;;;;;;54.20;29.83;;;;;;;8.21;100.00;-24046.25;5050725;28;20209;-55
2021/12/05 15:18:39;;;;;;;55.97;30.60;;;;;;;8.36;100.00;-24050.66;5049819;28;20197;-55
2021/12/05 15:21:06;;;;;;;55.53;29.90;;;;;;;8.80;100.00;-24062.94;5051008;28;20209;-53
2021/12/05 15:23:40;;;;;;;59.00;30.23;;;;;;;8.88;100.00;-24064.94;5051086;28;20575;-52
2021/12/05 15:26:07;;;;;;;52.90;29.30;;;;;;;9.07;100.00;-24070.31;5049538;28;20183;-58
2021/12/05 15:28:35;;;;;;;52.20;30.23;;;;;;;8.58;100.00;-24056.59;5049720;28;20196;-56
2021/12/05 15:31:01;;;;;;;56.37;31.03;;;;;;;8.65;100.00;-24058.56;5050670;28;20618;-57
2021/12/05 15:33:28;;;;;;;51.17;28.87;;;;;;;8.63;100.00;-24058.16;5050059;28;20202;-56
2021/12/05 15:35:56;;;;;;;54.37;29.87;;;;;;;8.73;100.00;-24060.84;5050181;28;20602;-53
2021/12/05 15:38:25;;;;;;;56.53;29.03;;;;;;;8.88;100.00;-24065.06;5050606;28;20617;-72
2021/12/05 15:40:58;;;;;;;58.20;30.37;;;;;;;8.70;100.00;-24059.97;5050475;28;20292;-71
2021/12/05 15:43:26;;;;;;;53.70;29.53;;;;;;;8.70;100.00;-24059.97;5050188;28;20190;-70
2021/12/05 15:45:53;;;;;;;60.47;31.47;;;;;;;8.46;100.00;-24053.19;5050279;28;20621;-71
2021/12/05 15:48:26;;;;;;;55.37;30.27;;;;;;;8.83;100.00;-24063.81;5046441;28;20194;-72
2021/12/05 15:50:52;;;;;;;65.63;33.17;;;;;;;8.66;100.00;-24059.00;5031596;28;20207;-72
2021/12/05 15:53:19;;;;;;;59.77;34.33;;;;;;;8.52;100.00;-24054.88;5050322;28;20653;-73
2021/12/05 15:55:58;;;;;;;66.17;36.43;;;;;;;8.70;100.00;-24059.97;5051763;28;20175;-73
2021/12/05 15:58:38;;;;;;;64.07;33.87;;;;;;;8.88;100.00;-24065.22;5050949;28;20183;-73
2021/12/05 16:01:11;;;;;;;59.17;32.17;;;;;;;8.65;100.00;-24058.56;5051430;28;20697;-74
2021/12/05 16:03:49;;;;;;;61.50;32.57;;;;;;;8.48;100.00;-24053.75;5051068;28;20643;-70
2021/12/05 16:06:18;;;;;;;53.50;29.83;;;;;;;8.72;100.00;-24060.69;5050870;28;20182;-68
2021/12/05 16:08:47;;;;;;;53.30;29.03;;;;;;;8.38;100.00;-24051.22;5051665;28;20620;-69
2021/12/05 16:11:18;;;;;;;51.63;28.67;;;;;;;8.58;100.00;-24056.59;5051287;28;20202;-68
2021/12/05 16:13:48;;;;;;;47.47;27.00;;;;;;;8.90;100.00;-24065.66;5050115;28;20178;-68
2021/12/05 16:16:28;;;;;;;48.13;28.37;;;;;;;8.82;100.00;-24063.53;5050314;28;20182;-68
2021/12/05 16:18:58;;;;;;;47.93;27.30;;;;;;;8.38;100.00;-24051.22;5047581;28;20179;-70
2021/12/05 16:21:29;;;;;;;49.33;29.23;;;;;;;8.62;100.00;-24057.72;5078615;28;20621;-71
2021/12/05 16:23:56;;;;;;;45.80;28.63;;;;;;;8.66;100.00;-24059.00;5051512;28;20181;-70
2021/12/05 16:26:25;;;;;;;49.73;29.50;;;;;;;8.31;100.00;-24049.22;5052541;28;20170;-70
2021/12/05 16:28:58;;;;;;;49.37;30.53;;;;;;;8.40;100.00;-24051.63;5055526;28;20170;-69
2021/12/05 16:31:30;;;;;;;53.93;31.00;;;;;;;8.51;100.00;-24054.59;5055092;28;20171;-70
2021/12/05 16:34:10;;;;;;;54.83;31.40;;;;;;;8.57;100.00;-24056.31;5055580;28;20163;-70
2021/12/05 16:36:39;;;;;;;59.97;34.57;;;;;;;8.72;100.00;-24060.69;5052975;28;20641;-70
2021/12/05 16:39:18;;;;;;;58.67;35.10;;;;;;;8.62;100.00;-24057.88;5053423;28;20248;-70
2021/12/05 16:41:50;;;;;;;59.57;31.80;;;;;;;8.43;100.00;-24052.47;5054616;28;20596;-70
2021/12/05 16:44:22;;;;;;;51.90;30.73;;;;;;;8.75;100.00;-24061.53;5053258;28;20268;-69
2021/12/05 16:46:58;;;;;;;53.37;31.40;;;;;;;8.71;100.00;-24060.25;5053764;28;20167;-69
2021/12/05 16:49:30;;;;;;;51.27;31.10;;;;;;;8.88;100.00;-24064.94;5054983;28;20192;-70
2021/12/05 16:52:20;;;;;;;56.97;31.37;;;;;;;8.60;100.00;-24057.28;5054733;28;20167;-67
2021/12/05 16:54:51;;;;;;;57.33;32.90;;;;;;;8.51;100.00;-24054.59;5055146;28;20185;-68
2021/12/05 16:57:21;;;;;;;65.33;36.83;;;;;;;8.30;100.00;-24048.94;5053756;28;20155;-68
2021/12/05 16:59:50;;;;;;;68.60;38.23;;;;;;;8.08;100.00;-24042.72;5052969;28;20198;-68
2021/12/05 17:02:25;;;;;;;68.53;38.30;;;;;;;8.26;100.00;-24047.66;5054293;28;20642;-69
2021/12/05 17:05:01;;;;;;;73.37;41.43;;;;;;;8.28;100.00;-24048.22;5054563;28;20619;-68
2021/12/05 17:07:40;;;;;;;72.70;40.37;;;;;;;8.32;100.00;-24049.38;5054606;28;20249;-68
2021/12/05 17:10:12;;;;;;;83.20;44.10;;;;;;;8.29;100.00;-24048.50;5054694;28;20174;-69
2021/12/05 17:12:38;;;;;;;86.30;48.93;;;;;;;8.42;100.00;-24052.19;5054409;28;20586;-68
2021/12/05 17:15:16;;;;;;;86.50;46.67;;;;;;;8.46;100.00;-24053.34;5054680;28;20190;-72
2021/12/05 17:17:45;;;;;;;94.47;51.00;;;;;;;8.16;100.00;-24044.84;5054163;28;20171;-70
2021/12/05 17:20:25;;;;;;;90.43;52.37;;;;;;;8.51;100.00;-24054.75;5054256;28;20202;-70
2021/12/05 17:23:18;;;;;;;91.73;51.60;;;;;;;8.45;100.00;-24053.06;5054267;28;20252;-69
2021/12/05 17:25:48;;;;;;;98.83;54.10;;;;;;;8.21;100.00;-24046.41;5053363;28;20201;-69
2021/12/05 17:28:42;;;;;;;104.23;55.57;;;;;;;8.38;100.00;-24051.06;5053942;28;20265;-69
2021/12/05 17:31:12;;;;;;;100.03;56.13;;;;;;;8.49;100.00;-24054.03;5051799;28;20274;-68
2021/12/05 17:33:47;;;;;;;101.80;57.33;;;;;;;8.15;100.00;-24044.56;5052484;28;20178;-68
2021/12/05 17:36:14;;;;;;;100.53;55.27;;;;;;;8.72;100.00;-24060.56;5054178;28;20239;-68